createdAt,value
2018-09-21T00:02:13.096Z,8.25
2018-09-21T00:04:46.545Z,15.95
2018-09-21T00:07:19.927Z,8.90
2018-09-21T00:10:00.095Z,11.10
2018-09-21T00:12:33.824Z,4.60
2018-09-21T00:15:07.467Z,11.83
2018-09-21T00:17:47.467Z,6.67
2018-09-21T00:20:21.031Z,8.55
2018-09-21T00:22:54.447Z,10.63
2018-09-21T00:25:28.047Z,12.75
2018-09-21T00:28:01.610Z,3.98
2018-09-21T00:30:35.211Z,15.20
2018-09-21T00:33:08.834Z,6.58
2018-09-21T00:35:42.373Z,9.53
2018-09-21T00:38:22.277Z,9.28
2018-09-21T00:40:55.824Z,9.65
2018-09-21T00:43:29.544Z,12.60
2018-09-21T00:46:02.987Z,7.25
2018-09-21T00:48:36.451Z,10.78
2018-09-21T00:51:16.399Z,15.08
2018-09-21T00:53:49.798Z,9.95
2018-09-21T00:56:23.573Z,14.63
2018-09-21T00:58:57.012Z,16.07
2018-09-21T01:01:36.960Z,12.20
2018-09-21T01:04:16.838Z,9.38
2018-09-21T01:06:50.431Z,11.93
2018-09-21T01:09:24.883Z,10.98
2018-09-21T01:12:04.740Z,9.20
2018-09-21T01:14:38.208Z,6.47
2018-09-21T01:17:11.731Z,12.25
2018-09-21T01:19:45.204Z,12.00
2018-09-21T01:22:19.618Z,11.93
2018-09-21T01:24:53.154Z,8.08
2018-09-21T01:27:26.776Z,13.53
2018-09-21T01:30:00.307Z,9.28
2018-09-21T01:32:33.911Z,9.58
2018-09-21T01:35:07.328Z,15.35
2018-09-21T01:37:40.976Z,9.53
2018-09-21T01:40:14.434Z,7.40
2018-09-21T01:42:47.798Z,10.55
2018-09-21T01:45:21.427Z,13.55
2018-09-21T01:47:54.915Z,7.65
2018-09-21T01:50:28.385Z,14.58
2018-09-21T01:53:03.135Z,13.88
2018-09-21T01:55:36.564Z,7.80
2018-09-21T01:58:10.168Z,13.38
2018-09-21T02:00:43.739Z,8.20
2018-09-21T02:03:17.210Z,12.13
2018-09-21T02:05:50.796Z,10.72
2018-09-21T02:08:24.378Z,9.65
2018-09-21T02:10:58.088Z,7.20
2018-09-21T02:13:31.649Z,11.90
2018-09-21T02:16:05.118Z,8.48
2018-09-21T02:18:45.000Z,9.35
2018-09-21T02:21:18.424Z,11.48
2018-09-21T02:23:51.982Z,8.38
2018-09-21T02:26:26.193Z,10.95
2018-09-21T02:29:00.727Z,10.60
2018-09-21T02:31:34.249Z,9.23
2018-09-21T02:34:08.765Z,9.13
2018-09-21T02:36:42.588Z,11.18
2018-09-21T02:39:16.164Z,12.65
2018-09-21T02:41:49.795Z,7.90
2018-09-21T02:44:23.233Z,9.90
2018-09-21T02:46:56.921Z,13.35
2018-09-21T02:49:36.851Z,8.90
2018-09-21T02:52:10.549Z,12.95
2018-09-21T02:54:44.012Z,12.45
2018-09-21T02:57:18.476Z,15.10
2018-09-21T02:59:52.066Z,12.35
2018-09-21T03:02:25.693Z,6.22
2018-09-21T03:05:00.171Z,11.03
2018-09-21T03:07:39.996Z,9.83
2018-09-21T03:10:13.543Z,8.13
2018-09-21T03:12:47.097Z,9.45
2018-09-21T03:15:26.821Z,8.68
2018-09-21T03:18:00.189Z,9.10
2018-09-21T03:20:33.758Z,18.42
2018-09-21T03:23:07.127Z,11.22
2018-09-21T03:25:41.625Z,8.38
2018-09-21T03:28:15.235Z,7.70
2018-09-21T03:30:48.708Z,9.68
2018-09-21T03:33:23.261Z,16.62
2018-09-21T03:35:56.832Z,6.35
2018-09-21T03:38:31.350Z,7.10
2018-09-21T03:41:04.983Z,16.32
2018-09-21T03:43:38.782Z,7.97
2018-09-21T03:46:12.458Z,14.35
2018-09-21T03:48:45.963Z,13.48
2018-09-21T03:51:20.613Z,15.08
2018-09-21T03:53:57.351Z,8.88
2018-09-21T03:56:30.957Z,8.28
2018-09-21T03:59:10.971Z,13.90
2018-09-21T04:01:50.947Z,11.00
2018-09-21T04:04:24.409Z,21.20
2018-09-21T04:06:58.328Z,9.93
2018-09-21T04:09:32.023Z,10.85
2018-09-21T04:12:11.791Z,11.53
2018-09-21T04:14:45.383Z,14.33
2018-09-21T04:17:19.017Z,9.88
2018-09-21T04:19:52.452Z,10.08
2018-09-21T04:22:26.115Z,13.08
2018-09-21T04:25:07.291Z,15.03
2018-09-21T04:27:41.818Z,10.78
2018-09-21T04:30:15.540Z,12.65
2018-09-21T04:32:49.460Z,10.60
2018-09-21T04:35:29.972Z,12.70
2018-09-21T04:38:03.725Z,14.38
2018-09-21T04:40:38.414Z,12.43
2018-09-21T04:43:12.345Z,10.70
2018-09-21T04:45:46.257Z,8.30
2018-09-21T04:48:20.887Z,8.05
2018-09-21T04:50:54.715Z,11.70
2018-09-21T04:53:29.353Z,11.35
2018-09-21T04:56:09.753Z,9.40
2018-09-21T04:58:43.663Z,5.95
2018-09-21T05:01:23.789Z,15.43
2018-09-21T05:03:57.279Z,14.05
2018-09-21T05:06:30.927Z,16.42
2018-09-21T05:09:07.103Z,17.42
2018-09-21T05:11:47.219Z,14.95
2018-09-21T05:14:27.231Z,13.95
2018-09-21T05:17:00.699Z,12.00
2018-09-21T05:19:34.253Z,9.58
2018-09-21T05:22:07.944Z,7.75
2018-09-21T05:24:47.936Z,14.33
2018-09-21T05:27:27.982Z,9.43
2018-09-21T05:30:01.528Z,7.50
2018-09-21T05:32:35.703Z,15.98
2018-09-21T05:35:15.724Z,14.30
2018-09-21T05:37:49.085Z,8.73
2018-09-21T05:40:22.833Z,8.83
2018-09-21T05:42:57.504Z,9.23
2018-09-21T05:45:31.076Z,9.25
2018-09-21T05:48:04.538Z,9.48
2018-09-21T05:50:44.573Z,9.35
2018-09-21T05:53:24.555Z,15.63
2018-09-21T05:55:58.163Z,9.15
2018-09-21T05:58:31.887Z,7.47
2018-09-21T06:01:05.779Z,9.53
2018-09-21T06:03:39.469Z,10.32
2018-09-21T06:06:13.180Z,10.98
2018-09-21T06:08:53.083Z,10.98
2018-09-21T06:11:32.942Z,11.03
2018-09-21T06:14:06.505Z,9.18
2018-09-21T06:16:46.545Z,7.22
2018-09-21T06:19:26.457Z,9.68
2018-09-21T06:22:06.430Z,6.75
2018-09-21T06:24:39.887Z,10.05
2018-09-21T06:27:13.444Z,7.97
2018-09-21T06:29:53.329Z,12.85
2018-09-21T06:32:33.217Z,9.50
2018-09-21T06:35:12.998Z,11.18
2018-09-21T06:37:47.372Z,6.50
2018-09-21T06:40:20.877Z,7.58
2018-09-21T06:42:54.310Z,5.10
2018-09-21T06:45:27.888Z,9.68
2018-09-21T06:48:02.394Z,7.75
2018-09-21T06:50:36.812Z,7.10
2018-09-21T06:53:10.595Z,4.78
2018-09-21T06:55:50.437Z,5.92
2018-09-21T06:58:23.831Z,9.95
2018-09-21T07:01:00.304Z,7.80
2018-09-21T07:03:33.787Z,11.48
2018-09-21T07:06:07.671Z,12.65
2018-09-21T07:08:41.888Z,9.30
2018-09-21T07:11:15.379Z,8.83
2018-09-21T07:13:49.974Z,8.73
2018-09-21T07:16:23.373Z,3.80
2018-09-21T07:18:56.775Z,8.65
2018-09-21T07:21:30.329Z,42.53
2018-09-21T07:24:03.796Z,44.57
2018-09-21T07:26:37.217Z,44.83
2018-09-21T07:29:10.755Z,73.50
2018-09-21T07:31:44.228Z,126.20
2018-09-21T07:34:17.848Z,66.55
2018-09-21T07:36:57.618Z,55.17
2018-09-21T07:39:31.154Z,63.43
2018-09-21T07:42:05.526Z,80.50
2018-09-21T07:44:45.241Z,82.47
2018-09-21T07:47:25.064Z,49.07
2018-09-21T07:49:59.484Z,46.37
2018-09-21T07:52:33.041Z,98.07
2018-09-21T07:55:07.564Z,73.23
2018-09-21T07:57:47.458Z,62.80
2018-09-21T08:00:20.837Z,69.93
2018-09-21T08:02:54.497Z,63.67
2018-09-21T08:05:34.869Z,76.40
2018-09-21T08:08:14.597Z,58.63
2018-09-21T08:10:54.388Z,46.63
2018-09-21T08:13:34.351Z,68.07
2018-09-21T08:16:08.702Z,69.65
2018-09-21T08:18:42.371Z,70.20
2018-09-21T08:21:15.892Z,70.60
2018-09-21T08:23:50.316Z,86.00
2018-09-21T08:26:24.077Z,61.23
2018-09-21T08:28:58.396Z,75.20
2018-09-21T08:31:38.441Z,63.85
2018-09-21T08:34:18.492Z,67.97
2018-09-21T08:36:58.586Z,44.18
2018-09-21T08:39:33.131Z,56.23
2018-09-21T08:42:06.724Z,50.27
2018-09-21T08:44:40.499Z,49.47
2018-09-21T08:47:14.061Z,65.40
2018-09-21T08:49:54.152Z,63.13
2018-09-21T08:52:28.868Z,46.27
2018-09-21T08:55:03.439Z,50.20
2018-09-21T08:57:37.964Z,51.03
2018-09-21T09:00:11.548Z,45.70
2018-09-21T09:02:45.325Z,48.90
2018-09-21T09:05:21.431Z,45.00
2018-09-21T09:07:55.960Z,50.93
2018-09-21T09:10:35.835Z,40.30
2018-09-21T09:13:09.426Z,26.13
2018-09-21T09:15:50.167Z,39.67
2018-09-21T09:18:23.812Z,38.40
2018-09-21T09:21:03.879Z,32.77
2018-09-21T09:23:43.722Z,24.97
2018-09-21T09:26:17.388Z,39.67
2018-09-21T09:28:57.328Z,31.23
2018-09-21T09:31:37.362Z,24.37
2018-09-21T09:34:10.923Z,47.33
2018-09-21T09:36:44.392Z,36.80
2018-09-21T09:39:17.800Z,33.90
2018-09-21T09:41:52.328Z,39.80
2018-09-21T09:44:25.890Z,38.10
2018-09-21T09:46:59.548Z,35.63
2018-09-21T09:49:39.672Z,54.37
2018-09-21T09:52:14.282Z,37.43
2018-09-21T09:54:54.255Z,47.00
2018-09-21T09:57:27.839Z,39.17
2018-09-21T10:00:01.367Z,39.80
2018-09-21T10:02:34.715Z,34.10
2018-09-21T10:05:08.633Z,33.67
2018-09-21T10:07:48.604Z,31.77
2018-09-21T10:10:22.280Z,30.70
2018-09-21T10:12:55.901Z,32.80
2018-09-21T10:15:35.800Z,36.63
2018-09-21T10:18:15.854Z,29.50
2018-09-21T10:20:49.572Z,24.30
2018-09-21T10:23:23.199Z,21.20
2018-09-21T10:25:56.909Z,21.67
2018-09-21T10:28:30.589Z,19.00
2018-09-21T10:31:10.526Z,9.97
2018-09-21T10:33:45.368Z,21.17
2018-09-21T10:36:19.817Z,16.23
2018-09-21T10:38:59.661Z,19.00
2018-09-21T10:41:39.625Z,19.17
2018-09-21T10:44:13.186Z,16.07
2018-09-21T10:46:47.085Z,14.90
2018-09-21T10:49:20.569Z,19.00
2018-09-21T10:52:00.518Z,7.43
2018-09-21T10:54:34.111Z,15.53
2018-09-21T10:57:07.515Z,17.87
2018-09-21T10:59:41.117Z,29.53
2018-09-21T11:02:14.801Z,26.67
2018-09-21T11:04:48.411Z,27.53
2018-09-21T11:07:22.056Z,14.27
2018-09-21T11:10:01.835Z,19.07
2018-09-21T11:12:35.516Z,17.10
2018-09-21T11:15:09.071Z,16.27
2018-09-21T11:17:42.712Z,16.93
2018-09-21T11:20:17.380Z,29.03
2018-09-21T11:22:50.988Z,17.47
2018-09-21T11:25:24.960Z,15.13
2018-09-21T11:27:58.728Z,15.33
2018-09-21T11:30:32.569Z,11.47
2018-09-21T11:33:06.206Z,9.63
2018-09-21T11:35:46.414Z,11.70
2018-09-21T11:38:20.237Z,12.13
2018-09-21T11:41:00.376Z,14.43
2018-09-21T11:43:33.790Z,12.17
2018-09-21T11:46:07.549Z,6.20
2018-09-21T11:48:40.915Z,7.97
2018-09-21T11:51:14.488Z,9.47
2018-09-21T11:53:49.221Z,12.20
2018-09-21T11:56:22.784Z,7.23
2018-09-21T11:58:56.435Z,7.20
2018-09-21T12:01:36.661Z,9.17
2018-09-21T12:04:10.383Z,8.97
2018-09-21T12:06:44.180Z,12.40
2018-09-21T12:09:17.810Z,9.80
2018-09-21T12:11:52.232Z,8.40
2018-09-21T12:14:26.722Z,7.25
2018-09-21T12:17:00.481Z,5.03
2018-09-21T12:19:40.677Z,7.07
2018-09-21T12:22:20.702Z,3.53
2018-09-21T12:24:54.209Z,4.37
2018-09-21T12:27:34.300Z,4.47
2018-09-21T12:30:07.911Z,10.93
2018-09-21T12:32:47.914Z,6.73
2018-09-21T12:35:22.449Z,6.90
2018-09-21T12:37:56.234Z,10.20
2018-09-21T12:40:29.764Z,10.30
2018-09-21T12:43:03.477Z,5.03
2018-09-21T12:45:37.127Z,10.73
2018-09-21T12:48:17.114Z,9.70
2018-09-21T12:50:57.231Z,3.52
2018-09-21T12:53:32.101Z,8.63
2018-09-21T12:56:05.759Z,9.30
2018-09-21T12:58:45.960Z,7.87
2018-09-21T13:01:20.528Z,5.00
2018-09-21T13:04:00.596Z,4.95
2018-09-21T13:06:34.172Z,7.20
2018-09-21T13:09:07.976Z,7.85
2018-09-21T13:11:47.984Z,4.95
2018-09-21T13:14:21.554Z,9.35
2018-09-21T13:17:01.516Z,5.25
2018-09-21T13:19:41.414Z,5.17
2018-09-21T13:22:14.995Z,7.70
2018-09-21T13:24:54.852Z,5.70
2018-09-21T13:27:28.512Z,6.30
2018-09-21T13:30:02.003Z,9.58
2018-09-21T13:32:36.516Z,3.65
2018-09-21T13:35:16.455Z,4.03
2018-09-21T13:37:49.957Z,8.63
2018-09-21T13:40:23.552Z,5.12
2018-09-21T13:43:03.384Z,5.67
2018-09-21T13:45:36.984Z,6.40
2018-09-21T13:48:10.517Z,3.17
2018-09-21T13:50:44.743Z,7.15
2018-09-21T13:53:18.447Z,6.62
2018-09-21T13:55:52.009Z,5.10
2018-09-21T13:58:32.188Z,5.17
2018-09-21T14:01:06.106Z,7.58
2018-09-21T14:03:39.901Z,3.85
2018-09-21T14:06:13.791Z,4.65
2018-09-21T14:08:47.465Z,4.00
2018-09-21T14:11:27.341Z,1.52
2018-09-21T14:14:00.860Z,4.62
2018-09-21T14:16:40.863Z,5.00
2018-09-21T14:19:14.609Z,2.90
2018-09-21T14:21:54.790Z,3.02
2018-09-21T14:24:29.324Z,4.00
2018-09-21T14:27:04.152Z,5.45
2018-09-21T14:29:37.805Z,3.37
2018-09-21T14:32:11.648Z,3.98
2018-09-21T14:34:45.597Z,9.85
2018-09-21T14:37:25.616Z,5.80
2018-09-21T14:39:59.304Z,2.27
2018-09-21T14:42:33.254Z,4.10
2018-09-21T14:45:13.028Z,5.70
2018-09-21T14:47:46.542Z,5.30
2018-09-21T14:50:20.185Z,4.85
2018-09-21T14:52:53.790Z,4.33
2018-09-21T14:55:27.258Z,5.50
2018-09-21T14:58:07.011Z,8.67
2018-09-21T15:00:46.949Z,6.03
2018-09-21T15:03:20.679Z,5.63
2018-09-21T15:05:54.423Z,9.57
2018-09-21T15:08:28.253Z,5.57
2018-09-21T15:11:01.719Z,8.40
2018-09-21T15:13:41.863Z,7.90
2018-09-21T15:16:15.546Z,5.97
2018-09-21T15:18:55.629Z,6.90
2018-09-21T15:21:35.677Z,6.60
2018-09-21T15:24:11.150Z,4.13
2018-09-21T15:26:44.697Z,6.67
2018-09-21T15:29:18.524Z,2.97
2018-09-21T15:31:52.270Z,8.37
2018-09-21T15:34:25.692Z,3.57
2018-09-21T15:36:59.211Z,9.20
2018-09-21T15:39:32.996Z,6.20
2018-09-21T15:42:06.974Z,4.60
2018-09-21T15:44:46.833Z,8.30
2018-09-21T15:47:20.526Z,6.93
2018-09-21T15:50:00.448Z,7.20
2018-09-21T15:52:33.937Z,8.60
2018-09-21T15:55:07.579Z,5.97
2018-09-21T15:57:41.273Z,9.17
2018-09-21T16:00:17.018Z,4.10
2018-09-21T16:02:51.304Z,6.20
2018-09-21T16:05:26.449Z,7.87
2018-09-21T16:08:00.048Z,6.57
2018-09-21T16:10:40.032Z,8.70
2018-09-21T16:13:13.645Z,7.13
2018-09-21T16:15:47.758Z,8.27
2018-09-21T16:18:27.880Z,17.00
2018-09-21T16:21:07.891Z,9.97
2018-09-21T16:23:42.492Z,13.33
2018-09-21T16:26:15.927Z,6.93
2018-09-21T16:28:49.611Z,5.50
2018-09-21T16:31:23.265Z,14.23
2018-09-21T16:33:56.891Z,13.27
2018-09-21T16:36:31.720Z,6.17
2018-09-21T16:39:12.372Z,9.00
2018-09-21T16:41:52.419Z,5.87
2018-09-21T16:44:26.256Z,9.60
2018-09-21T16:46:59.939Z,5.87
2018-09-21T16:49:34.356Z,12.23
2018-09-21T16:52:14.332Z,8.80
2018-09-21T16:54:47.839Z,12.70
2018-09-21T16:57:27.772Z,6.97
2018-09-21T17:00:01.276Z,7.07
2018-09-21T17:02:41.253Z,6.57
2018-09-21T17:05:16.040Z,4.03
2018-09-21T17:07:50.240Z,9.87
2018-09-21T17:10:23.813Z,10.27
2018-09-21T17:13:03.817Z,2.20
2018-09-21T17:15:37.405Z,7.80
2018-09-21T17:18:17.585Z,6.97
2018-09-21T17:20:51.144Z,7.73
2018-09-21T17:23:24.724Z,7.23
2018-09-21T17:25:58.327Z,2.93
2018-09-21T17:28:32.229Z,8.57
2018-09-21T17:31:05.808Z,7.63
2018-09-21T17:33:39.453Z,7.70
2018-09-21T17:36:13.011Z,4.00
2018-09-21T17:38:52.859Z,3.87
2018-09-21T17:41:33.118Z,2.70
2018-09-21T17:44:13.170Z,7.60
2018-09-21T17:46:46.669Z,4.70
2018-09-21T17:49:27.293Z,2.70
2018-09-21T17:52:00.867Z,7.70
2018-09-21T17:54:34.460Z,39.13
2018-09-21T17:57:08.427Z,12.67
2018-09-21T17:59:48.377Z,12.80
2018-09-21T18:02:28.320Z,14.37
2018-09-21T18:05:01.812Z,50.60
2018-09-21T18:07:35.297Z,30.03
2018-09-21T18:10:10.772Z,12.20
2018-09-21T18:12:44.130Z,54.67
2018-09-21T18:15:24.023Z,6.67
2018-09-21T18:17:57.484Z,7.70
2018-09-21T18:20:37.334Z,17.80
2018-09-21T18:23:17.393Z,101.67
2018-09-21T18:25:57.365Z,29.95
2018-09-21T18:28:32.217Z,21.67
2018-09-21T18:31:05.779Z,10.30
2018-09-21T18:33:39.268Z,10.00
2018-09-21T18:36:12.800Z,8.23
2018-09-21T18:38:46.194Z,8.60
2018-09-21T18:41:20.533Z,4.67
2018-09-21T18:43:54.380Z,8.73
2018-09-21T18:46:28.009Z,7.23
2018-09-21T18:49:01.827Z,10.43
2018-09-21T18:51:35.372Z,7.07
2018-09-21T18:54:10.162Z,10.10
2018-09-21T18:56:44.207Z,7.23
2018-09-21T18:59:17.798Z,5.60
2018-09-21T19:01:57.856Z,9.20
2018-09-21T19:04:37.787Z,13.83
2018-09-21T19:07:17.161Z,16.37
2018-09-21T19:09:57.540Z,6.83
2018-09-21T19:12:37.562Z,9.00
2018-09-21T19:15:11.165Z,11.57
2018-09-21T19:17:44.812Z,8.20
2018-09-21T19:20:24.773Z,15.37
2018-09-21T19:22:58.472Z,7.30
2018-09-21T19:25:38.359Z,14.80
2018-09-21T19:28:12.114Z,8.10
2018-09-21T19:30:52.150Z,10.93
2018-09-21T19:33:25.716Z,7.93
2018-09-21T19:36:00.392Z,3.60
2018-09-21T19:38:34.263Z,9.47
2018-09-21T19:41:07.810Z,12.03
2018-09-21T19:43:41.384Z,12.77
2018-09-21T19:46:21.634Z,7.83
2018-09-21T19:49:01.461Z,15.03
2018-09-21T19:51:41.504Z,9.23
2018-09-21T19:54:15.057Z,8.17
2018-09-21T19:56:55.345Z,13.47
2018-09-21T19:59:35.432Z,8.17
2018-09-21T20:02:15.425Z,16.10
2018-09-21T20:04:49.111Z,15.83
2018-09-21T20:37:53.646Z,17.20
2018-09-21T20:40:27.406Z,15.40
2018-09-21T20:43:00.988Z,27.20
2018-09-21T20:45:34.499Z,19.93
2018-09-21T20:48:08.140Z,9.40
2018-09-21T20:50:48.370Z,25.67
2018-09-21T20:53:22.819Z,18.30
2018-09-21T20:56:02.930Z,29.97
2018-09-21T20:58:36.989Z,36.97
2018-09-21T21:01:10.761Z,27.43
2018-09-21T21:03:44.625Z,31.20
2018-09-21T21:06:19.566Z,56.40
2018-09-21T21:08:59.742Z,25.00
2018-09-21T21:11:33.456Z,29.87
2018-09-21T21:14:13.836Z,33.07
2018-09-21T21:16:47.981Z,34.53
2018-09-21T21:19:29.224Z,21.20
2018-09-21T21:22:09.635Z,13.63
2018-09-21T21:24:43.579Z,20.27
2018-09-21T21:27:23.656Z,16.77
2018-09-21T21:29:57.330Z,21.50
2018-09-21T21:32:30.752Z,29.37
2018-09-21T21:35:04.210Z,26.00
2018-09-21T21:37:38.887Z,29.97
2018-09-21T21:40:12.629Z,27.63
2018-09-21T21:42:52.655Z,17.43
2018-09-21T21:45:26.345Z,22.27
2018-09-21T21:48:00.744Z,30.70
2018-09-21T21:50:34.371Z,20.83
2018-09-21T21:53:08.166Z,28.53
2018-09-21T21:55:41.860Z,29.37
2018-09-21T21:58:15.631Z,20.07
2018-09-21T22:00:54.923Z,20.37
2018-09-21T22:03:29.524Z,25.60
2018-09-21T22:06:03.008Z,22.70
2018-09-21T22:08:46.340Z,25.77
2018-09-21T22:11:25.836Z,23.40
2018-09-21T22:14:07.426Z,33.00
2018-09-21T22:16:40.758Z,23.83
2018-09-21T22:19:14.225Z,25.23
2018-09-21T22:21:48.030Z,22.87
2018-09-21T22:24:21.427Z,22.50
2018-09-21T22:26:54.994Z,21.43
2018-09-21T22:29:28.373Z,24.70
2018-09-21T22:32:08.094Z,18.00
2018-09-21T22:34:47.840Z,26.00
2018-09-21T22:37:21.364Z,18.27
2018-09-21T22:39:54.734Z,57.03
2018-09-21T22:42:28.098Z,54.77
2018-09-21T22:45:02.578Z,21.57
2018-09-21T22:47:35.981Z,27.27
2018-09-21T22:50:09.650Z,17.27
2018-09-21T22:52:43.168Z,29.47
2018-09-21T22:55:16.626Z,16.07
2018-09-21T22:57:50.056Z,22.60
2018-09-21T23:00:23.551Z,17.93
2018-09-21T23:02:57.124Z,22.47
2018-09-21T23:05:30.617Z,32.73
2018-09-21T23:08:04.237Z,23.23
2018-09-21T23:10:44.037Z,24.37
2018-09-21T23:13:17.617Z,24.03
2018-09-21T23:15:51.466Z,35.33
2018-09-21T23:18:24.947Z,21.37
2018-09-21T23:21:04.794Z,25.57
2018-09-21T23:23:38.435Z,17.77
2018-09-21T23:26:12.025Z,30.37
2018-09-21T23:28:45.635Z,11.13
2018-09-21T23:38:28.513Z,114.77
2018-09-21T23:41:02.996Z,37.83
2018-09-21T23:43:36.624Z,32.83
2018-09-21T23:46:10.268Z,28.93
2018-09-21T23:48:43.787Z,26.20
2018-09-21T23:51:23.918Z,23.03
2018-09-21T23:53:57.392Z,21.63
2018-09-21T23:56:30.977Z,22.57
2018-09-21T23:59:11.005Z,19.60
